Time;durP1;ratioP1;P1;durP2;ratioP2;P2;SDS_P1;SDS_P2;PMS_P1;PMS_P2;Temp;Humidity;BMP_temperature;BMP_pressure;BME280_temperature;BME280_humidity;BME280_pressure;Samples;Min_cycle;Max_cycle;Signal;HPM_P1;HPM_P2
2021/04/11 00:00:32;;;;;;;15.57;9.23;;;;;;;4.78;55.78;100964.81;5027798;28;20029;-23
2021/04/11 00:02:57;;;;;;;13.15;7.03;;;;;;;4.74;55.67;100963.47;5028325;28;20030;-22
2021/04/11 00:05:28;;;;;;;15.60;8.02;;;;;;;4.89;55.96;100958.38;5028068;28;20025;-22
2021/04/11 00:07:53;;;;;;;12.35;7.03;;;;;;;4.99;55.49;100952.97;5026843;28;20035;-23
2021/04/11 00:10:33;;;;;;;18.20;9.93;;;;;;;5.16;54.91;100959.94;5027763;28;20120;-22
2021/04/11 00:12:59;;;;;;;18.20;10.93;;;;;;;4.97;55.18;100931.97;5027913;28;20026;-21
2021/04/11 00:15:25;;;;;;;15.77;9.57;;;;;;;4.48;57.21;100949.47;5028360;28;20143;-23
2021/04/11 00:17:51;;;;;;;16.33;10.02;;;;;;;5.20;55.35;100977.16;5026468;28;20134;-23
2021/04/11 00:20:16;;;;;;;17.02;9.45;;;;;;;5.02;55.48;100976.44;5027600;28;20581;-23
2021/04/11 00:22:43;;;;;;;16.98;9.98;;;;;;;4.93;55.90;100974.75;5027677;28;20029;-22
2021/04/11 00:25:10;;;;;;;15.27;9.80;;;;;;;4.72;56.45;100970.72;5028137;28;20056;-23
2021/04/11 00:27:35;;;;;;;17.00;10.13;;;;;;;4.26;57.88;100975.41;5027296;28;20087;-22
2021/04/11 00:30:01;;;;;;;17.55;10.45;;;;;;;4.52;57.25;100967.47;5027735;28;20033;-23
2021/04/11 00:32:27;;;;;;;18.70;11.20;;;;;;;4.36;57.67;100973.50;5027293;28;20030;-21
2021/04/11 00:34:52;;;;;;;20.55;12.27;;;;;;;4.11;58.66;100964.59;5026580;28;20057;-22
2021/04/11 00:37:18;;;;;;;17.00;11.38;;;;;;;4.30;58.18;100971.47;5027433;28;20067;-23
2021/04/11 00:39:43;;;;;;;18.30;10.48;;;;;;;4.11;58.68;100969.03;5026236;28;20091;-22
2021/04/11 00:42:19;;;;;;;18.80;10.75;;;;;;;3.84;59.29;100957.59;5027170;28;20033;-23
2021/04/11 00:44:45;;;;;;;19.40;10.95;;;;;;;3.59;59.88;100967.94;5010492;28;20083;-23
2021/04/11 00:47:11;;;;;;;27.33;14.40;;;;;;;3.22;61.52;100947.81;5009622;28;20506;-23
2021/04/11 00:49:42;;;;;;;25.58;12.93;;;;;;;3.49;60.75;100972.47;5026010;28;20533;-24
2021/04/11 00:52:09;;;;;;;26.35;15.55;;;;;;;3.49;60.14;100943.47;5026911;28;20029;-22
2021/04/11 00:54:35;;;;;;;33.28;19.38;;;;;;;3.84;59.72;100970.78;5026605;28;20036;-22
2021/04/11 00:57:01;;;;;;;36.58;18.45;;;;;;;4.26;57.89;100980.69;5027296;28;20068;-23
2021/04/11 00:59:26;;;;;;;26.20;14.77;;;;;;;4.39;57.10;100981.13;5026098;28;20095;-23
2021/04/11 01:01:52;;;;;;;20.65;11.25;;;;;;;4.73;56.84;100967.06;5026161;28;20033;-22
2021/04/11 01:04:18;;;;;;;33.60;18.20;;;;;;;5.08;55.16;100972.31;5027168;28;20030;-21
2021/04/11 01:07:08;;;;;;;18.65;10.13;;;;;;;5.13;54.44;100972.66;5026293;28;20025;-21
2021/04/11 01:09:35;;;;;;;16.17;9.50;;;;;;;5.17;54.92;100981.94;5026264;28;20037;-22
2021/04/11 01:12:01;;;;;;;18.10;9.10;;;;;;;5.20;54.73;100982.44;5009551;28;20021;-22
2021/04/11 01:14:30;;;;;;;14.95;9.18;;;;;;;5.41;54.91;100966.16;5025471;28;20057;-22
2021/04/11 01:16:56;;;;;;;16.85;9.52;;;;;;;5.49;53.75;100954.72;5025778;28;20032;-23
2021/04/11 01:19:30;;;;;;;21.45;11.27;;;;;;;5.44;54.88;100978.22;5027183;28;20029;-22
2021/04/11 01:22:05;;;;;;;20.75;11.27;;;;;;;5.57;53.98;100978.53;5026257;28;20022;-22
2021/04/11 01:24:47;;;;;;;25.77;12.65;;;;;;;5.44;53.90;100949.09;5010103;28;20497;-22
2021/04/11 01:27:15;;;;;;;23.60;14.18;;;;;;;4.97;55.10;100947.03;5026850;28;20527;-22
2021/04/11 01:29:40;;;;;;;23.13;12.68;;;;;;;4.64;56.15;100965.41;5025635;28;20485;-22
2021/04/11 01:32:07;;;;;;;20.75;12.90;;;;;;;5.02;55.52;100963.22;5025500;28;20164;-19
2021/04/11 01:34:32;;;;;;;24.55;13.55;;;;;;;5.46;54.49;100970.94;5026413;28;20026;-22
2021/04/11 01:36:58;;;;;;;25.77;14.90;;;;;;;5.35;54.05;100969.44;5027106;28;20029;-22
2021/04/11 01:39:26;;;;;;;22.23;13.75;;;;;;;5.07;55.00;100952.16;5009143;28;20063;-22
2021/04/11 01:41:53;;;;;;;23.58;14.30;;;;;;;5.12;54.86;100968.38;5009351;28;20037;-22
2021/04/11 01:44:22;;;;;;;23.27;12.88;;;;;;;5.08;54.75;100944.06;5009290;28;20096;-22
2021/04/11 01:46:51;;;;;;;23.23;12.52;;;;;;;5.43;54.21;100963.31;5025905;28;20044;-21
2021/04/11 01:49:17;;;;;;;20.45;10.70;;;;;;;5.12;54.48;100971.84;5027470;28;20065;-22
2021/04/11 01:51:45;;;;;;;18.08;10.93;;;;;;;5.03;54.84;100967.53;5028942;28;20162;-22
2021/04/11 01:54:12;;;;;;;17.70;11.07;;;;;;;5.00;55.42;100967.84;5029144;28;20041;-22
2021/04/11 01:56:41;;;;;;;24.40;13.80;;;;;;;5.34;53.93;100959.00;5012440;28;20263;-22
2021/04/11 01:59:27;;;;;;;22.90;13.45;;;;;;;5.27;54.24;100973.88;5012207;28;20032;-22
2021/04/11 02:01:53;;;;;;;23.23;13.23;;;;;;;4.94;55.78;100965.84;5028465;28;20064;-22
2021/04/11 02:04:19;;;;;;;22.65;13.15;;;;;;;4.93;55.40;100972.94;5012245;28;20477;-22
2021/04/11 02:06:47;;;;;;;23.10;13.88;;;;;;;4.93;55.50;100972.13;5031759;28;20413;-20
2021/04/11 02:09:16;;;;;;;18.55;11.70;;;;;;;5.03;55.22;100972.81;5016287;28;20050;-22
2021/04/11 02:11:42;;;;;;;18.00;11.10;;;;;;;4.76;56.02;100976.50;5032482;28;20120;-22
2021/04/11 02:14:09;;;;;;;16.45;10.23;;;;;;;4.54;56.87;100965.50;5031882;28;20029;-22
2021/04/11 02:16:35;;;;;;;14.65;10.05;;;;;;;4.33;57.43;100972.97;5032331;28;20037;-22
2021/04/11 02:19:14;;;;;;;15.35;9.85;;;;;;;4.30;57.61;100960.91;5050139;28;20029;-23
2021/04/11 02:21:40;;;;;;;16.48;9.60;;;;;;;3.92;58.98;100962.94;5016837;28;20418;-23
2021/04/11 02:24:08;;;;;;;15.73;9.40;;;;;;;4.12;58.35;100968.03;5015659;28;20029;-22
2021/04/11 02:26:34;;;;;;;18.58;10.30;;;;;;;4.23;58.17;100959.88;5015882;28;20474;-22
2021/04/11 02:29:05;;;;;;;18.10;10.05;;;;;;;4.42;57.47;100978.16;5032093;28;20102;-22
2021/04/11 02:31:30;;;;;;;15.88;9.90;;;;;;;4.52;57.03;100969.28;5031991;28;20090;-22
2021/04/11 02:34:02;;;;;;;18.27;10.32;;;;;;;4.82;55.29;100971.41;5031740;28;20056;-22
2021/04/11 02:36:34;;;;;;;16.33;9.60;;;;;;;4.92;56.10;100978.38;5049450;28;20064;-22
2021/04/11 02:38:59;;;;;;;15.95;9.80;;;;;;;5.04;55.14;100972.63;5031813;28;20028;-22
2021/04/11 02:41:25;;;;;;;15.15;9.80;;;;;;;4.99;54.89;100950.34;5015476;28;20079;-22
2021/04/11 02:43:51;;;;;;;17.05;9.88;;;;;;;4.94;55.17;100979.88;5049523;28;20044;-21
2021/04/11 02:46:16;;;;;;;20.75;10.75;;;;;;;4.74;55.93;100967.88;5049402;28;20038;-23
2021/04/11 02:48:42;;;;;;;15.27;10.18;;;;;;;4.78;56.30;100975.38;5015336;28;20044;-22
2021/04/11 02:51:08;;;;;;;17.55;10.75;;;;;;;4.43;57.04;100982.47;5031019;28;20099;-23
2021/04/11 02:53:35;;;;;;;16.60;10.20;;;;;;;4.52;57.31;100977.22;5049400;28;20028;-22
2021/04/11 02:56:00;;;;;;;16.02;9.98;;;;;;;4.80;56.31;100994.53;5015227;28;20056;-22
2021/04/11 02:58:26;;;;;;;24.33;13.98;;;;;;;4.20;57.58;100981.31;5048952;28;20089;-32
2021/04/11 03:01:03;;;;;;;23.48;15.05;;;;;;;4.46;56.46;100975.19;5014884;28;20036;-23
2021/04/11 03:03:28;;;;;;;29.70;15.57;;;;;;;4.92;55.68;100992.41;5031967;28;20025;-22
2021/04/11 03:05:55;;;;;;;27.90;15.05;;;;;;;4.85;55.63;100990.59;5015108;28;20382;-20
2021/04/11 03:08:22;;;;;;;26.52;15.18;;;;;;;4.79;55.00;101003.44;5014950;28;20112;-21
2021/04/11 03:10:53;;;;;;;23.85;14.60;;;;;;;4.69;55.42;101000.09;5015175;28;20035;-22
2021/04/11 03:13:19;;;;;;;25.30;15.60;;;;;;;4.64;55.89;101007.66;5048988;28;20021;-22
2021/04/11 03:15:45;;;;;;;29.27;15.48;;;;;;;4.70;55.92;101014.13;5014403;28;20036;-22
2021/04/11 03:18:11;;;;;;;29.55;15.10;;;;;;;4.69;56.09;101000.09;5030216;28;20037;-22
2021/04/11 03:20:37;;;;;;;24.67;15.07;;;;;;;4.23;57.77;101013.50;5014713;28;20032;-21
2021/04/11 03:23:03;;;;;;;26.45;14.40;;;;;;;4.01;57.61;100996.34;5014709;28;20508;-22
2021/04/11 03:25:31;;;;;;;20.58;14.20;;;;;;;3.80;58.71;101019.56;5031201;28;20054;-22
2021/04/11 03:28:19;;;;;;;27.88;14.38;;;;;;;3.89;58.61;101026.59;5031051;28;20041;-21
2021/04/11 03:30:52;;;;;;;26.23;15.32;;;;;;;4.00;58.05;101022.88;5014580;28;20460;-21
2021/04/11 03:33:18;;;;;;;35.58;18.23;;;;;;;3.87;58.07;101011.91;5030981;28;20508;-22
2021/04/11 03:35:45;;;;;;;27.73;16.27;;;;;;;3.81;58.22;101018.59;5014253;28;20064;-22
2021/04/11 03:38:12;;;;;;;24.88;15.88;;;;;;;3.66;58.23;101014.81;5014325;28;20562;-22
2021/04/11 03:40:38;;;;;;;27.23;14.77;;;;;;;3.59;58.80;101004.06;5014068;28;20112;-23
2021/04/11 03:43:13;;;;;;;26.35;14.65;;;;;;;3.56;58.65;101007.81;5014266;28;20025;-22
2021/04/11 03:45:39;;;;;;;24.00;14.77;;;;;;;3.61;59.04;101034.56;5014389;28;20126;-21
2021/04/11 03:48:26;;;;;;;28.75;15.07;;;;;;;3.50;58.51;101040.06;5048495;28;20075;-22
2021/04/11 03:51:09;;;;;;;28.10;15.45;;;;;;;3.00;60.52;101035.19;5048274;28;20778;-23
2021/04/11 03:53:48;;;;;;;30.35;17.83;;;;;;;2.84;60.91;101021.81;5048328;28;20048;-22
2021/04/11 03:56:15;;;;;;;29.77;17.15;;;;;;;3.20;60.17;101047.31;5030330;28;20554;-22
2021/04/11 03:58:45;;;;;;;23.27;14.90;;;;;;;2.81;60.57;101026.41;5013972;28;20064;-22
2021/04/11 04:01:19;;;;;;;23.00;13.77;;;;;;;2.98;60.27;101027.47;5013980;28;20037;-21
2021/04/11 04:03:45;;;;;;;21.05;12.88;;;;;;;3.00;60.47;101049.22;5030459;28;20496;-23
2021/04/11 04:06:23;;;;;;;24.95;13.68;;;;;;;2.85;61.36;101044.56;5047942;28;20075;-22
2021/04/11 04:08:50;;;;;;;19.15;12.25;;;;;;;3.20;60.85;101055.22;5030255;28;20226;-22
2021/04/11 04:11:21;;;;;;;22.83;13.70;;;;;;;3.78;58.54;101053.19;5048147;28;20516;-22
2021/04/11 04:14:16;;;;;;;55.00;40.58;;;;;;;2.95;61.84;101071.72;5048049;28;20162;-22
2021/04/11 04:16:54;;;;;;;36.75;26.77;;;;;;;3.39;60.39;101071.91;5032779;28;20032;-22
2021/04/11 04:19:32;;;;;;;156.02;70.10;;;;;;;3.53;59.70;101042.41;5029919;28;20024;-23
2021/04/11 04:22:25;;;;;;;231.07;106.05;;;;;;;3.31;60.77;101063.91;5030581;28;20045;-23
2021/04/11 04:25:20;;;;;;;40.85;23.15;;;;;;;3.43;60.71;101062.72;5047573;28;20043;-21
2021/04/11 04:28:15;;;;;;;25.25;15.90;;;;;;;3.35;60.79;101065.28;5041953;28;20045;-23
2021/04/11 04:31:09;;;;;;;28.15;16.38;;;;;;;3.87;59.48;101068.13;5046094;28;20107;-22
2021/04/11 04:34:02;;;;;;;32.40;16.92;;;;;;;3.35;61.29;101071.38;4993198;28;20210;-21
2021/04/11 04:36:54;;;;;;;22.42;14.57;;;;;;;2.88;62.29;101052.16;5029175;28;20079;-23
2021/04/11 04:39:23;;;;;;;28.75;15.50;;;;;;;2.98;63.21;101084.56;5029975;28;20037;-23
2021/04/11 04:41:53;;;;;;;;;;;;;;;2.95;63.43;101090.16;5029827;28;20378;-22
2021/04/11 04:44:34;;;;;;;69.70;36.60;;;;;;;3.66;60.90;101088.69;5047098;28;19916;-23
2021/04/11 04:47:12;;;;;;;31.92;17.63;;;;;;;3.88;60.46;101069.78;5047387;28;20040;-21
2021/04/11 04:49:38;;;;;;;29.65;17.95;;;;;;;3.49;62.07;101077.97;5013163;28;20061;-23
2021/04/11 04:52:11;;;;;;;34.10;20.23;;;;;;;3.74;60.48;101065.03;5047070;28;20021;-22
2021/04/11 04:55:16;;;;;;;34.28;19.75;;;;;;;4.16;59.82;101090.84;5029572;28;20036;-22
2021/04/11 04:57:47;;;;;;;30.48;18.13;;;;;;;4.03;60.38;101086.78;5046649;28;20036;-23
2021/04/11 05:00:23;;;;;;;28.23;16.13;;;;;;;4.59;57.43;101063.59;5013224;28;20475;-22
2021/04/11 05:02:57;;;;;;;25.70;14.52;;;;;;;4.80;57.51;101084.38;5030719;28;20033;-21
2021/04/11 05:05:22;;;;;;;27.38;14.63;;;;;;;5.37;56.58;101090.94;5013752;28;20047;-22
2021/04/11 05:08:18;;;;;;;25.17;14.25;;;;;;;5.43;55.54;101085.00;5029115;28;20392;-22
2021/04/11 05:11:17;;;;;;;21.17;12.77;;;;;;;5.60;54.32;101081.44;5014140;28;20025;-23
2021/04/11 05:13:46;;;;;;;;;;;;;;;5.90;54.35;101095.03;5028942;28;20420;-23
2021/04/11 05:16:31;;;;;;;18.52;11.40;;;;;;;5.69;55.19;101073.50;5028903;28;20023;-23
2021/04/11 05:19:00;;;;;;;19.58;11.38;;;;;;;5.82;55.09;101084.44;5028915;28;20064;-23
2021/04/11 05:21:26;;;;;;;;;;;;;;;6.19;55.46;101096.44;5029941;28;20049;-23
2021/04/11 05:23:53;;;;;;;26.30;13.98;;;;;;;5.54;57.88;101092.66;5029086;28;19923;-22
2021/04/11 05:26:29;;;;;;;25.08;15.20;;;;;;;5.67;56.56;101100.13;5012474;28;20112;-22
2021/04/11 05:29:20;;;;;;;18.80;11.23;;;;;;;5.69;56.99;101099.97;4996713;28;20037;-22
2021/04/11 05:31:45;;;;;;;24.35;14.43;;;;;;;5.41;58.15;101098.41;5047094;28;20479;-23
2021/04/11 05:34:14;;;;;;;32.40;17.77;;;;;;;5.61;57.26;101098.94;5028711;28;20025;-22
2021/04/11 05:36:51;;;;;;;33.85;18.60;;;;;;;5.50;58.02;101099.25;5046737;28;20052;-22
2021/04/11 05:39:35;;;;;;;18.20;12.15;;;;;;;5.54;58.56;101103.25;5046729;28;20098;-22
2021/04/11 05:42:09;;;;;;;20.95;13.15;;;;;;;5.94;56.84;101109.63;5050467;28;20036;-22
2021/04/11 05:44:41;;;;;;;23.63;11.27;;;;;;;5.72;57.12;101094.34;5050670;28;20028;-21
2021/04/11 05:47:48;;;;;;;13.73;9.05;;;;;;;5.90;55.52;101107.47;5016997;28;20068;-22
2021/04/11 05:50:18;;;;;;;16.42;9.40;;;;;;;6.44;54.46;101092.81;4988451;28;20069;-21
2021/04/11 05:53:16;;;;;;;12.32;7.88;;;;;;;6.47;51.22;101102.25;4972613;28;20038;-21
2021/04/11 05:55:44;;;;;;;14.40;8.57;;;;;;;6.91;50.60;101111.66;5010393;28;20072;-21
2021/04/11 05:58:49;;;;;;;17.92;10.48;;;;;;;7.30;49.04;101110.88;5016060;28;20041;-22
2021/04/11 06:01:41;;;;;;;15.48;8.90;;;;;;;6.91;50.59;101106.34;5029627;28;20045;-20
2021/04/11 06:04:08;;;;;;;16.58;9.55;;;;;;;7.11;49.06;101101.47;5025785;28;20116;-21
2021/04/11 06:06:45;;;;;;;13.20;8.45;;;;;;;7.49;50.15;101110.44;5032954;28;20815;-22
2021/04/11 06:09:20;;;;;;;15.63;9.13;;;;;;;7.55;49.69;101096.47;5033177;28;20025;-21
2021/04/11 06:11:50;;;;;;;14.20;8.55;;;;;;;7.95;49.69;101110.53;5050373;28;20052;-21
2021/04/11 06:14:19;;;;;;;17.50;10.00;;;;;;;8.14;47.74;101113.72;5032184;28;20109;-22
2021/04/11 06:16:45;;;;;;;12.88;7.70;;;;;;;8.16;47.67;101117.03;5049684;28;20041;-22
2021/04/11 06:19:10;;;;;;;13.30;8.02;;;;;;;8.47;47.82;101119.66;5032276;28;20481;-21
2021/04/11 06:21:48;;;;;;;12.98;7.75;;;;;;;8.51;47.52;101117.47;5050039;28;20041;-22
2021/04/11 06:24:19;;;;;;;11.57;7.82;;;;;;;8.58;47.29;101121.88;5050000;28;20052;-23
2021/04/11 06:26:53;;;;;;;11.05;7.30;;;;;;;8.66;46.55;101118.31;5049855;28;20025;-22
2021/04/11 06:29:25;;;;;;;12.18;7.05;;;;;;;8.64;44.77;101096.38;5016218;28;20036;-22
2021/04/11 06:31:59;;;;;;;45.20;20.38;;;;;;;8.52;44.32;101106.66;5015577;28;20028;-22
2021/04/11 06:34:35;;;;;;;11.02;6.30;;;;;;;8.65;42.73;101114.00;5015460;28;20119;-21
2021/04/11 06:37:02;;;;;;;13.07;7.65;;;;;;;8.74;40.40;101112.09;5016629;28;20108;-22
2021/04/11 06:39:29;;;;;;;14.68;10.35;;;;;;;8.67;43.15;101090.72;5013696;28;20170;-22
2021/04/11 06:42:19;;;;;;;12.57;7.43;;;;;;;9.33;43.23;101132.59;5049556;28;20021;-21
2021/04/11 06:45:05;;;;;;;18.35;13.93;;;;;;;9.10;43.06;101120.22;5049480;28;20076;-22
2021/04/11 06:47:34;;;;;;;29.27;16.25;;;;;;;9.72;43.59;101129.59;5049423;28;20072;-22
2021/04/11 06:50:26;;;;;;;21.60;15.75;;;;;;;10.23;40.27;101131.38;5049201;28;20095;-22
2021/04/11 06:53:16;;;;;;;23.90;21.25;;;;;;;10.00;40.80;101120.91;5030629;28;20032;-21
2021/04/11 06:56:01;;;;;;;19.27;13.10;;;;;;;9.28;41.83;101130.50;5049410;28;20538;-21
2021/04/11 06:58:48;;;;;;;17.45;9.75;;;;;;;9.34;39.98;101123.63;5048927;28;20059;-22
2021/04/11 07:01:19;;;;;;;13.20;7.53;;;;;;;9.27;41.55;101118.19;5049490;28;20078;-22
2021/04/11 07:04:12;;;;;;;40.17;26.13;;;;;;;9.37;42.41;101120.56;5049339;28;20033;-21
2021/04/11 07:07:15;;;;;;;12.10;7.38;;;;;;;8.94;42.46;101128.38;5049168;28;20086;-22
2021/04/11 07:10:13;;;;;;;19.98;13.18;;;;;;;9.18;43.56;101129.94;5049225;28;20017;-22
2021/04/11 07:13:17;;;;;;;12.38;7.70;;;;;;;9.81;44.52;101143.66;5049006;28;20041;-21
2021/04/11 07:16:18;;;;;;;10.93;7.13;;;;;;;9.75;43.23;101133.75;5048665;28;20496;-21
2021/04/11 07:18:56;;;;;;;25.55;14.60;;;;;;;9.79;45.80;101129.69;5033778;28;20025;-22
2021/04/11 07:21:40;;;;;;;11.83;6.90;;;;;;;9.57;44.12;101132.28;5049198;28;20029;-21
2021/04/11 07:24:36;;;;;;;12.20;7.68;;;;;;;9.95;44.14;101132.13;5048759;28;20286;-21
2021/04/11 07:27:30;;;;;;;13.65;6.85;;;;;;;10.13;44.44;101138.84;5048736;28;20064;-22
2021/04/11 07:30:07;;;;;;;13.05;8.68;;;;;;;10.21;44.50;101149.41;5048565;28;20029;-22
2021/04/11 07:32:32;;;;;;;11.27;8.02;;;;;;;10.34;42.96;101135.41;5030564;28;20036;-22
2021/04/11 07:35:25;;;;;;;316.88;139.50;;;;;;;10.07;43.77;101129.78;5048650;28;20025;-22
2021/04/11 07:37:57;;;;;;;14.80;7.75;;;;;;;10.21;42.56;101134.22;5032992;28;20052;-20
2021/04/11 07:40:43;;;;;;;11.70;7.30;;;;;;;10.30;44.12;101102.97;5048488;28;20063;-22
2021/04/11 07:43:26;;;;;;;11.65;8.05;;;;;;;10.48;42.33;101118.50;5033426;28;20033;-22
2021/04/11 07:46:11;;;;;;;14.63;9.48;;;;;;;10.48;44.60;101123.00;5015419;28;20033;-22
2021/04/11 07:49:13;;;;;;;12.80;7.80;;;;;;;10.44;43.31;101115.41;5057036;28;20040;-21
2021/04/11 07:51:52;;;;;;;10.35;7.13;;;;;;;10.11;44.88;101119.56;5057494;28;20420;-22
2021/04/11 07:54:46;;;;;;;13.52;7.57;;;;;;;10.27;45.02;101127.31;5055058;28;20091;-20
2021/04/11 07:57:36;;;;;;;13.77;8.10;;;;;;;10.55;43.24;101124.72;5056386;28;20043;-22
2021/04/11 08:00:09;;;;;;;14.85;7.53;;;;;;;11.45;41.52;101122.22;5037178;28;20032;-21
2021/04/11 08:02:53;;;;;;;11.85;7.38;;;;;;;11.50;40.57;101119.75;5045936;28;20032;-21
2021/04/11 08:05:25;;;;;;;13.10;7.72;;;;;;;11.51;42.67;101118.75;5051567;28;20090;-21
2021/04/11 08:08:15;;;;;;;12.30;7.80;;;;;;;11.18;42.80;101115.94;5049882;28;20025;-21
2021/04/11 08:11:16;;;;;;;13.20;7.57;;;;;;;11.29;44.98;101106.53;5067989;28;20040;-22
2021/04/11 08:13:41;;;;;;;15.50;7.70;;;;;;;11.78;45.15;101113.50;5041992;28;20467;-21
2021/04/11 08:16:52;;;;;;;13.77;8.20;;;;;;;12.20;41.71;101111.59;5047578;28;20037;-20
2021/04/11 08:19:36;;;;;;;13.00;7.22;;;;;;;11.98;43.93;101108.25;5030113;28;20043;-22
2021/04/11 08:22:13;;;;;;;12.48;8.07;;;;;;;11.88;44.23;101119.28;5047956;28;20473;-22
2021/04/11 08:24:57;;;;;;;12.18;7.10;;;;;;;11.66;43.97;101111.41;5029700;28;20497;-21
2021/04/11 08:27:56;;;;;;;11.88;7.57;;;;;;;12.22;44.13;101114.88;5047749;28;20079;-20
2021/04/11 08:30:53;;;;;;;12.82;7.82;;;;;;;12.32;41.76;101115.31;5059523;28;20029;-21
2021/04/11 08:33:55;;;;;;;13.45;9.80;;;;;;;12.43;45.31;101112.00;5049930;28;20042;-21
2021/04/11 08:36:53;;;;;;;12.80;8.00;;;;;;;12.37;43.25;101104.78;5067345;28;20454;-22
2021/04/11 08:39:42;;;;;;;13.18;7.72;;;;;;;12.57;43.68;101095.97;5036210;28;20102;-20
2021/04/11 08:42:29;;;;;;;12.20;8.05;;;;;;;13.00;41.11;101096.31;5049473;28;20081;-21
2021/04/11 08:45:00;;;;;;;13.02;8.40;;;;;;;13.03;42.68;101101.22;5067526;28;20118;-21
2021/04/11 08:47:31;;;;;;;13.15;7.60;;;;;;;13.05;43.34;101101.84;5067267;28;20068;-21
2021/04/11 08:49:58;;;;;;;14.65;8.52;;;;;;;13.32;41.54;101096.47;5049513;28;20091;-20
2021/04/11 08:52:46;;;;;;;12.30;6.70;;;;;;;13.41;43.23;101095.16;5049025;28;20143;-21
2021/04/11 08:55:34;;;;;;;8.70;5.50;;;;;;;13.19;44.17;101083.88;5067284;28;20024;-20
2021/04/11 08:58:08;;;;;;;9.75;5.97;;;;;;;13.48;42.71;101087.09;5049173;28;20055;-21
2021/04/11 09:00:57;;;;;;;11.55;6.00;;;;;;;12.83;43.37;101063.81;5067266;28;20024;-22
2021/04/11 09:03:26;;;;;;;12.73;7.13;;;;;;;13.20;45.74;101077.50;5028100;28;20040;-21
2021/04/11 09:06:07;;;;;;;20.10;12.90;;;;;;;13.54;44.80;101086.25;5049375;28;20032;-21
2021/04/11 09:09:08;;;;;;;20.50;15.77;;;;;;;13.62;46.32;101080.63;5066972;28;20032;-21
2021/04/11 09:12:15;;;;;;;7.18;4.28;;;;;;;13.50;44.86;101068.94;5067185;28;20104;-21
2021/04/11 09:14:58;;;;;;;6.50;4.28;;;;;;;13.61;44.47;101052.19;4985121;28;20121;-21
2021/04/11 09:17:57;;;;;;;8.80;4.82;;;;;;;13.92;43.96;101076.56;5042805;28;20048;-21
2021/04/11 09:20:41;;;;;;;9.98;5.30;;;;;;;14.19;43.20;101071.84;5048891;28;20068;-21
2021/04/11 09:23:33;;;;;;;7.50;4.65;;;;;;;13.69;42.86;101071.72;5049214;28;20472;-22
2021/04/11 09:26:14;;;;;;;9.07;4.88;;;;;;;13.57;44.07;101068.94;5049297;28;20032;-20
2021/04/11 09:29:22;;;;;;;8.23;4.35;;;;;;;13.49;44.58;101072.69;5048989;28;20032;-21
2021/04/11 09:32:06;;;;;;;7.13;4.45;;;;;;;13.37;45.98;101069.84;5055759;28;20040;-20
2021/04/11 09:34:54;;;;;;;7.28;5.00;;;;;;;13.66;44.73;101041.66;5066750;28;20036;-21
2021/04/11 09:37:25;;;;;;;;;;;;;;;14.00;42.86;101058.34;5067165;28;20085;-20
2021/04/11 09:40:30;;;;;;;10.63;6.78;;;;;;;14.75;40.17;101064.75;5066760;28;19916;-21
2021/04/11 09:43:14;;;;;;;15.60;9.93;;;;;;;15.41;39.59;101071.25;5035924;28;20071;-21
2021/04/11 09:46:08;;;;;;;7.72;4.40;;;;;;;15.46;38.64;101055.25;5048889;28;20125;-21
2021/04/11 09:49:02;;;;;;;8.98;5.65;;;;;;;14.90;40.60;101056.38;5066916;28;20033;-20
2021/04/11 09:51:49;;;;;;;36.20;24.08;;;;;;;15.41;39.14;101052.44;5066487;28;20486;-22
2021/04/11 09:55:08;;;;;;;10.40;6.38;;;;;;;15.03;39.86;101050.84;5066331;28;20028;-21
2021/04/11 09:58:09;;;;;;;10.52;6.15;;;;;;;15.32;40.38;101034.97;4985325;28;20522;-21
2021/04/11 10:00:54;;;;;;;12.13;7.55;;;;;;;15.37;40.39;101029.75;5051298;28;20456;-21
2021/04/11 10:03:25;;;;;;;12.18;7.32;;;;;;;15.74;41.02;101037.75;5048502;28;20043;-21
2021/04/11 10:06:03;;;;;;;9.48;6.22;;;;;;;16.31;38.00;101035.41;5048767;28;20070;-21
2021/04/11 10:08:56;;;;;;;31.13;24.60;;;;;;;15.97;37.66;101040.50;5039949;28;20037;-21
2021/04/11 10:11:48;;;;;;;13.88;9.07;;;;;;;16.61;39.95;101029.06;5048543;28;20082;-20
2021/04/11 10:14:32;;;;;;;8.85;6.00;;;;;;;17.18;37.16;101028.41;5048165;28;20163;-20
2021/04/11 10:17:30;;;;;;;9.90;7.43;;;;;;;17.80;36.20;101023.09;5066413;28;20029;-21
2021/04/11 10:20:26;;;;;;;18.52;12.73;;;;;;;17.80;37.21;101006.13;5038406;28;20047;-21
2021/04/11 10:22:59;;;;;;;11.50;7.45;;;;;;;17.88;35.38;101016.53;5033598;28;20037;-21
2021/04/11 10:25:40;;;;;;;10.07;6.88;;;;;;;17.27;39.69;101017.03;5032712;28;20033;-20
2021/04/11 10:28:30;;;;;;;11.50;6.10;;;;;;;17.53;37.48;101009.41;5034430;28;20062;-19
2021/04/11 10:31:10;;;;;;;8.70;5.25;;;;;;;17.66;35.40;100998.31;5058286;28;20111;-21
2021/04/11 10:33:48;;;;;;;9.27;5.38;;;;;;;18.38;34.99;101001.38;5037237;28;20587;-20
2021/04/11 10:36:23;;;;;;;12.30;8.20;;;;;;;18.64;34.79;101002.56;5052171;28;20044;-20
2021/04/11 10:38:57;;;;;;;8.70;5.45;;;;;;;18.51;35.53;101008.31;5016650;28;20129;-20
2021/04/11 10:42:01;;;;;;;7.65;4.30;;;;;;;18.68;32.43;100988.28;5017845;28;20033;-20
2021/04/11 10:44:39;;;;;;;6.47;3.92;;;;;;;18.37;34.33;101003.25;5044036;28;20044;-20
2021/04/11 10:47:26;;;;;;;8.13;4.70;;;;;;;17.91;37.75;100999.03;5069853;28;20029;-21
2021/04/11 10:50:12;;;;;;;11.68;6.57;;;;;;;18.21;34.73;101004.09;5065468;28;20057;-20
2021/04/11 10:52:55;;;;;;;7.00;3.80;;;;;;;18.81;34.40;101003.34;5021910;28;20920;-20
2021/04/11 10:55:44;;;;;;;6.68;3.95;;;;;;;18.33;33.21;100987.78;5069492;28;20036;-20
2021/04/11 10:58:15;;;;;;;7.20;4.05;;;;;;;18.72;34.13;100993.19;5041760;28;20059;-21
2021/04/11 11:00:55;;;;;;;7.20;3.33;;;;;;;18.62;31.31;100988.47;5069643;28;20458;-21
2021/04/11 11:03:55;;;;;;;5.50;3.30;;;;;;;18.61;32.58;100970.63;5053577;28;20052;-20
2021/04/11 11:06:45;;;;;;;6.93;3.58;;;;;;;19.06;31.28;100966.88;5051534;28;20085;-21
2021/04/11 11:09:24;;;;;;;7.25;3.80;;;;;;;19.11;31.21;100969.66;5053817;28;20028;-21
2021/04/11 11:12:08;;;;;;;8.45;3.08;;;;;;;19.65;29.51;100969.63;5069180;28;20547;-22
2021/04/11 11:14:46;;;;;;;8.13;3.40;;;;;;;19.88;30.69;100965.00;5051092;28;20115;-21
2021/04/11 11:17:30;;;;;;;8.10;4.88;;;;;;;20.00;29.73;100954.78;5069378;28;20028;-21
2021/04/11 11:20:19;;;;;;;5.88;3.47;;;;;;;19.69;29.01;100942.88;5069229;28;20029;-21
2021/04/11 11:22:59;;;;;;;7.10;3.17;;;;;;;20.87;27.87;100957.97;5051100;28;20507;-20
2021/04/11 11:25:43;;;;;;;6.35;3.33;;;;;;;21.23;28.43;100954.56;5069086;28;20032;-21
2021/04/11 11:28:49;;;;;;;6.68;3.03;;;;;;;20.78;29.23;100956.88;5068868;28;20059;-20
2021/04/11 11:31:36;;;;;;;7.50;3.47;;;;;;;21.00;29.08;100953.13;5050716;28;20166;-21
2021/04/11 11:34:21;;;;;;;6.50;3.50;;;;;;;21.76;27.88;100938.06;5050708;28;20032;-20
2021/04/11 11:37:00;;;;;;;8.18;3.55;;;;;;;21.87;26.40;100920.69;5050591;28;20058;-20
2021/04/11 11:39:48;;;;;;;6.22;3.50;;;;;;;20.23;29.03;100936.53;5050058;28;20477;-20
2021/04/11 11:42:13;;;;;;;;;;;;;;;20.02;29.84;100936.41;5013531;28;20827;-21
2021/04/11 11:44:52;;;;;;;4.65;2.50;;;;;;;19.65;28.11;100926.31;5068282;28;19912;-21
2021/04/11 11:47:24;;;;;;;4.65;2.60;;;;;;;19.76;27.38;100929.97;5010928;28;20059;-20
2021/04/11 11:50:05;;;;;;;5.70;2.92;;;;;;;20.80;26.23;100924.88;5011562;28;20053;-20
2021/04/11 11:52:52;;;;;;;4.65;2.60;;;;;;;21.37;25.82;100906.84;5028151;28;20064;-20
2021/04/11 11:55:17;;;;;;;8.05;4.60;;;;;;;21.36;25.47;100924.19;4995757;28;20559;-20
2021/04/11 11:58:07;;;;;;;4.75;2.38;;;;;;;21.49;25.48;100909.28;5031970;28;20029;-21
2021/04/11 12:00:40;;;;;;;4.00;2.20;;;;;;;21.28;26.07;100892.16;5032281;28;20028;-21
2021/04/11 12:03:41;;;;;;;4.15;2.10;;;;;;;20.15;26.33;100901.81;4998531;28;20025;-20
2021/04/11 12:06:16;;;;;;;10.57;5.15;;;;;;;20.59;26.07;100887.94;4970779;28;20038;-21
2021/04/11 12:08:58;;;;;;;5.82;2.60;;;;;;;20.51;27.57;100901.97;5021629;28;20041;-20
2021/04/11 12:11:46;;;;;;;4.93;2.58;;;;;;;20.83;22.89;100886.38;5031823;28;20079;-21